CheckWX is a tool to help pilots better visualize weather data.  It is not intended as a substitute for an official pre-flight weather briefing.

09:34:18 UTC

KBIE METAR
Beatrice Municipal Airport
Beatrice, Nebraska, USA
Current

19 mins ago

KBIE 200915Z AUTO 17004KT 4SM BR OVC004 M02/M03 A2980 RMK AO2 T10251028
Observed
Feb-20 @ 09:15 UTC
Wind
  • 170° at 4 KTS
Visibility
6,437 meters
Flight Rules
LIFR
Conditions
Mist
Cloud Levels
  • Overcast at 400' AGL
Temperature
-3°C / 27°F
Dewpoint
-3°C / 27°F
Humidity
100%
Altimeter
29.8" Hg
Pressure
1009.12 hPa
Previous

39 mins ago

KBIE 200855Z AUTO 16004KT 3SM -SN OVC004 M02/M03 A2981 RMK AO2 P0001 60003 T10231027
Observed
Feb-20 @ 08:55 UTC
Wind
  • 160° at 4 KTS
Visibility
4,828 meters
Flight Rules
LIFR
Conditions
Light Snow
Cloud Levels
  • Overcast at 400' AGL
Temperature
-2°C / 28°F
Dewpoint
-3°C / 27°F
Humidity
93%
Altimeter
29.81" Hg
Pressure
1009.52 hPa
Current Rain
0.01"
Previous

59 mins ago

KBIE 200835Z AUTO 17007KT 3SM -SN OVC004 M02/M03 A2983 RMK AO2 T10231027
Observed
Feb-20 @ 08:35 UTC
Wind
  • 170° at 7 KTS
Visibility
4,828 meters
Flight Rules
LIFR
Conditions
Light Snow
Cloud Levels
  • Overcast at 400' AGL
Temperature
-2°C / 28°F
Dewpoint
-3°C / 27°F
Humidity
93%
Altimeter
29.83" Hg
Pressure
1010.12 hPa